Columbus, OH (43266)

11:03 AM EDT on August 30, 2014 (GMT -0400)
Forest Park East | Change Station
CLOSE
Current Station
Personal Weather Station
Location: Columbus, OH
Elevation: 892 ft
Nearby Weather Stations

Elev 892 ft 40.08 °N, 82.96 °W | Updated 2 minutes ago

Partly Cloudy
Partly Cloudy
81.7 °F
Feels Like 83 °F
N
-
Wind Variable Wind from North

Today
High -- | Low -- °F
--% Chance of Precip.
Yesterday
High -- | Low -- °F
Precip. -- in
6:57 AM 8:06 PM
Waxing Crescent, 22% visible
Pressure 30.04 in
Visibility 10.0 miles
Clouds Scattered Clouds 12000 ft
Mostly Cloudy 25000 ft
Heat Index 83 °F
Dew Point 64 °F
Humidity 56%
Rainfall -999.00 in
Snow Depth Not available.
UV 2 out of 12
Pollen 11.10 out of 12
Ozone Good
PM2.5 Good
Flu Activity Not available.
METAR KCMH 301351Z 18006KT 10SM SCT120 BKN250 27/19 A3007 RMK AO2 SLP173 T02720194

More Conditions Fewer Conditions

Pressure 30.04 in
Visibility 10.0 miles
Clouds Scattered Clouds 12000 ft
Mostly Cloudy 25000 ft
Heat Index 83 °F
Dew Point 64 °F
Humidity 56%
Rainfall -999.00 in
Snow Depth Not available.
UV 2 out of 12
Pollen 11.10 out of 12
Ozone Good
PM2.5 Good
Flu Activity Not available.
METAR KCMH 301351Z 18006KT 10SM SCT120 BKN250 27/19 A3007 RMK AO2 SLP173 T02720194

More Conditions Fewer Conditions

10-Day Weather Forecast

Almanac

Astronomy

Aug. 30, 2014 Rise Set
Actual Time 6:57 AM EDT 8:06 PM EDT
Civil Twilight 6:29 AM EDT 8:34 PM EDT
Nautical Twilight 5:56 AM EDT 9:07 PM EDT
Astronomical Twilight 5:21 AM EDT 9:42 PM EDT
Moon 11:44 AM EDT 10:40 PM EDT
Length of Visible Light 14h 04m
Length of Day
13h 08m
Tomorrow will be 2m 31s shorter.
Waxing Crescent, 22% of the Moon is Illuminated
Today
Waxing Crescent
Sep 2
First Quarter
Sep 8
Full
Sep 15
Last Quarter
Sep 24
New

Today's Extremes

State Highs State Lows

Community

WunderPhotos

Upload Photos

1,748,536 photos uploaded!

WunderBlogs® & News

Nearby

Air Quality

  Air Quality AQ Index Pollutant
Yesterday Moderate
OZONE
Yesterday Good
PM2.5
Current Good
PM2.5
Current Good
OZONE
Saturday Moderate
OZONE
Saturday Moderate
PM2.5
Sunday Good
OZONE
Sunday Good
PM2.5
Monday Good
PM2.5
Monday Good
OZONE
Tuesday Good
OZONE
Tuesday Good
PM2.5
Wednesday Good
PM2.5
Wednesday Good
OZONE

Snow Depth

Station Depth Elevation
No new snow has been reported.

Earthquake Activity

City Distance Mag. Time & Date
No recent earthquake activity has been reported nearby.
Minimum magnitude displayed is 2.5.

Coastal Water Temperatures

Place Temperature
No Stations Reporting

Nearby Weather Stations